Terminal Aerodrome Forecast
Issued by NWS Jacksonville, FL

Home | Current Version | Previous Version | Text Only | Print | Product List | Glossary On
Versions: 1 2 3 4 5 6 7 8 9 10 11 12 13 14 15 16
959
FTUS42 KJAX 171120
TAFGNV
TAF
KGNV 171120Z 1712/1812 00000KT 6SM BR SCT002 BKN250
      TEMPO 1712/1713 2SM BR BKN002
     FM171400 31007KT P6SM BKN100
     FM171900 31009KT P6SM SCT100 BKN250
     FM180000 31008KT P6SM SKC=

USA.gov is the U.S. government's official web portal to all federal, state and local government web resources and services.